Time,TemperatureF,DewpointF,PressureIn,WindDirection,WindDirectionDegrees,WindSpeedMPH,WindSpeedGustMPH,Humidity,HourlyPrecipIn,Conditions,Clouds,dailyrainin,SoftwareType,DateUTC
2013-04-06 00:00:00,54.3,51.1,29.67,NW,315,0.0,0.0,89,0.00,,,0.13,VWS V14.01,2013-04-06 07:00:00,
2013-04-06 00:03:00,52.5,47.5,29.73,NNW,334,0.0,10.0,83,0.00,,,0.00,VWS V14.01,2013-04-06 07:03:00,
2013-04-06 00:08:00,52.4,47.4,29.73,NNW,334,0.0,10.0,83,0.00,,,0.00,VWS V14.01,2013-04-06 07:08:00,
2013-04-06 00:13:00,52.5,47.5,29.73,NNW,334,0.0,10.0,83,0.00,,,0.00,VWS V14.01,2013-04-06 07:13:00,
2013-04-06 00:18:00,52.5,47.5,29.73,NNW,334,0.0,10.0,83,0.00,,,0.00,VWS V14.01,2013-04-06 07:18:00,
2013-04-06 00:23:00,52.4,47.1,29.73,NNW,334,0.0,10.0,82,0.00,,,0.00,VWS V14.01,2013-04-06 07:23:00,
2013-04-06 00:28:00,52.3,47.3,29.73,NNW,334,0.0,10.0,83,0.00,,,0.00,VWS V14.01,2013-04-06 07:28:00,
2013-04-06 00:30:00,54.4,51.2,29.68,NW,315,0.0,4.0,89,0.01,,,0.14,VWS V14.01,2013-04-06 07:30:00,
2013-04-06 00:33:00,52.3,47.3,29.73,NNW,334,0.0,10.0,83,0.00,,,0.00,VWS V14.01,2013-04-06 07:33:00,
2013-04-06 00:38:00,52.3,47.6,29.73,NNW,334,0.0,10.0,84,0.00,,,0.00,VWS V14.01,2013-04-06 07:38:00,
2013-04-06 00:43:00,52.2,47.5,29.73,NNW,334,0.0,10.0,84,0.00,,,0.00,VWS V14.01,2013-04-06 07:43:00,
2013-04-06 00:48:00,52.3,47.6,29.72,NNW,334,0.0,10.0,84,0.00,,,0.00,VWS V14.01,2013-04-06 07:48:00,
2013-04-06 00:53:00,52.3,47.6,29.73,NNW,334,0.0,10.0,84,0.00,,,0.00,VWS V14.01,2013-04-06 07:53:00,
2013-04-06 00:58:00,52.4,47.7,29.73,NNW,334,0.0,10.0,84,0.00,,,0.00,VWS V14.01,2013-04-06 07:58:00,
2013-04-06 01:00:00,54.5,51.6,29.68,NW,315,0.0,0.0,90,0.01,,,0.00,VWS V14.01,2013-04-06 08:00:00,
2013-04-06 01:03:00,52.4,47.7,29.73,NNW,334,0.0,10.0,84,0.00,,,0.00,VWS V14.01,2013-04-06 08:03:00,
2013-04-06 01:08:00,52.4,47.7,29.73,NNW,334,0.0,10.0,84,0.00,,,0.00,VWS V14.01,2013-04-06 08:08:00,
2013-04-06 01:13:00,52.5,47.8,29.73,NNW,334,0.0,10.0,84,0.00,,,0.00,VWS V14.01,2013-04-06 08:13:00,
2013-04-06 01:18:00,52.5,47.8,29.73,NNW,334,0.0,10.0,84,0.00,,,0.00,VWS V14.01,2013-04-06 08:18:00,
2013-04-06 01:23:00,52.5,47.8,29.73,NNW,334,0.0,10.0,84,0.00,,,0.00,VWS V14.01,2013-04-06 08:23:00,
2013-04-06 01:28:00,52.4,47.7,29.73,NNW,334,0.0,10.0,84,0.00,,,0.00,VWS V14.01,2013-04-06 08:28:00,
2013-04-06 01:30:00,54.4,51.5,29.69,NW,315,0.0,2.0,90,0.01,,,0.00,VWS V14.01,2013-04-06 08:30:00,
2013-04-06 01:33:00,52.4,47.7,29.73,NNW,334,0.0,10.0,84,0.00,,,0.00,VWS V14.01,2013-04-06 08:33:00,
2013-04-06 01:38:00,52.3,47.6,29.73,NNW,334,0.0,10.0,84,0.00,,,0.00,VWS V14.01,2013-04-06 08:38:00,
2013-04-06 01:43:00,52.3,47.9,29.73,NNW,334,0.0,10.0,85,0.00,,,0.00,VWS V14.01,2013-04-06 08:43:00,
2013-04-06 01:48:00,52.4,48.0,29.73,NNW,334,0.0,10.0,85,0.00,,,0.00,VWS V14.01,2013-04-06 08:48:00,
2013-04-06 01:53:00,52.4,48.0,29.74,NNW,334,0.0,10.0,85,0.00,,,0.00,VWS V14.01,2013-04-06 08:53:00,
2013-04-06 01:58:00,52.6,48.2,29.74,NNW,334,0.0,10.0,85,0.00,,,0.00,VWS V14.01,2013-04-06 08:58:00,
2013-04-06 02:00:00,54.3,51.4,29.69,NW,315,0.0,0.0,90,0.00,,,0.00,VWS V14.01,2013-04-06 09:00:00,
2013-04-06 02:03:00,52.8,48.4,29.74,NNW,334,0.0,10.0,85,0.00,,,0.00,VWS V14.01,2013-04-06 09:03:00,
2013-04-06 02:08:00,52.8,48.4,29.73,NNW,334,0.0,10.0,85,0.00,,,0.00,VWS V14.01,2013-04-06 09:08:00,
2013-04-06 02:13:00,52.9,48.5,29.73,NNW,334,0.0,10.0,85,0.00,,,0.00,VWS V14.01,2013-04-06 09:13:00,
2013-04-06 02:18:00,53.0,48.6,29.73,NNW,334,0.0,10.0,85,0.00,,,0.00,VWS V14.01,2013-04-06 09:18:00,
2013-04-06 02:23:00,53.0,48.6,29.73,NNW,334,0.0,10.0,85,0.00,,,0.00,VWS V14.01,2013-04-06 09:23:00,
2013-04-06 02:28:00,53.1,48.7,29.73,NNW,334,0.0,10.0,85,0.00,,,0.00,VWS V14.01,2013-04-06 09:28:00,
2013-04-06 02:30:00,54.1,51.2,29.68,NW,315,0.0,2.0,90,0.00,,,0.00,VWS V14.01,2013-04-06 09:30:00,
2013-04-06 02:33:00,52.9,48.5,29.72,NNW,334,0.0,10.0,85,0.00,,,0.00,VWS V14.01,2013-04-06 09:33:00,
2013-04-06 02:38:00,53.0,48.6,29.73,NNW,334,0.0,10.0,85,0.00,,,0.00,VWS V14.01,2013-04-06 09:38:00,
2013-04-06 02:43:00,52.9,48.5,29.72,NNW,334,0.0,10.0,85,0.00,,,0.00,VWS V14.01,2013-04-06 09:43:00,
2013-04-06 02:48:00,52.9,48.5,29.72,NNW,334,0.0,10.0,85,0.00,,,0.00,VWS V14.01,2013-04-06 09:48:00,
2013-04-06 02:53:00,52.8,48.4,29.72,NNW,334,0.0,10.0,85,0.00,,,0.00,VWS V14.01,2013-04-06 09:53:00,
2013-04-06 02:58:00,52.7,48.3,29.72,NNW,334,0.0,10.0,85,0.00,,,0.00,VWS V14.01,2013-04-06 09:58:00,
2013-04-06 03:00:00,53.8,50.9,29.68,NW,315,0.0,2.0,90,0.00,,,0.00,VWS V14.01,2013-04-06 10:00:00,
2013-04-06 03:03:00,52.7,48.3,29.71,NNW,334,0.0,10.0,85,0.00,,,0.00,VWS V14.01,2013-04-06 10:03:00,
2013-04-06 03:08:00,52.7,48.3,29.72,NNW,334,0.0,10.0,85,0.00,,,0.00,VWS V14.01,2013-04-06 10:08:00,
2013-04-06 03:13:00,52.5,48.1,29.71,NNW,334,0.0,10.0,85,0.00,,,0.00,VWS V14.01,2013-04-06 10:13:00,
2013-04-06 03:18:00,52.5,48.1,29.71,NNW,334,0.0,10.0,85,0.00,,,0.00,VWS V14.01,2013-04-06 10:18:00,
2013-04-06 03:23:00,52.6,48.2,29.71,NNW,331,0.0,10.0,85,0.00,,,0.00,VWS V14.01,2013-04-06 10:23:00,
2013-04-06 03:30:00,53.4,50.2,29.68,NW,315,0.0,4.0,89,0.00,,,0.00,VWS V14.01,2013-04-06 10:30:00,
2013-04-06 03:33:00,52.6,48.2,29.71,NNW,331,0.0,10.0,85,0.00,,,0.00,VWS V14.01,2013-04-06 10:33:00,
2013-04-06 03:44:00,52.6,48.2,29.71,NNW,332,0.0,10.0,85,0.00,,,0.00,VWS V14.01,2013-04-06 10:44:00,
2013-04-06 03:49:00,52.5,48.1,29.71,NNW,332,0.0,10.0,85,0.00,,,0.00,VWS V14.01,2013-04-06 10:49:00,
2013-04-06 03:54:00,52.5,48.1,29.71,NNW,332,0.0,10.0,85,0.00,,,0.00,VWS V14.01,2013-04-06 10:54:00,
2013-04-06 04:00:00,53.1,50.0,29.68,NW,315,0.0,3.0,89,0.00,,,0.00,VWS V14.01,2013-04-06 11:00:00,
2013-04-06 04:04:00,52.3,47.9,29.71,NNW,332,0.0,10.0,85,0.00,,,0.00,VWS V14.01,2013-04-06 11:04:00,
2013-04-06 04:09:00,52.3,47.9,29.71,NNW,332,0.0,10.0,85,0.00,,,0.00,VWS V14.01,2013-04-06 11:09:00,
2013-04-06 04:14:00,52.3,47.9,29.71,NNW,332,0.0,10.0,85,0.00,,,0.00,VWS V14.01,2013-04-06 11:14:00,
2013-04-06 04:19:00,52.3,47.9,29.71,NNW,332,0.0,10.0,85,0.00,,,0.00,VWS V14.01,2013-04-06 11:19:00,
2013-04-06 04:24:00,52.1,48.0,29.71,NNW,332,0.0,10.0,86,0.00,,,0.00,VWS V14.01,2013-04-06 11:24:00,
2013-04-06 04:29:00,52.3,48.2,29.71,NNW,332,0.0,10.0,86,0.00,,,0.00,VWS V14.01,2013-04-06 11:29:00,
2013-04-06 04:30:00,52.8,49.7,29.68,NW,315,0.0,2.0,89,0.00,,,0.00,VWS V14.01,2013-04-06 11:30:00,
2013-04-06 04:34:00,52.3,48.2,29.71,NNW,332,0.0,10.0,86,0.00,,,0.00,VWS V14.01,2013-04-06 11:34:00,
2013-04-06 04:39:00,52.3,48.2,29.71,NNW,332,0.0,10.0,86,0.00,,,0.00,VWS V14.01,2013-04-06 11:39:00,
2013-04-06 04:44:00,52.2,48.2,29.71,NNW,331,0.0,10.0,86,0.00,,,0.00,VWS V14.01,2013-04-06 11:44:00,
2013-04-06 04:49:00,52.2,48.2,29.71,NNW,332,0.0,10.0,86,0.00,,,0.00,VWS V14.01,2013-04-06 11:49:00,
2013-04-06 04:54:00,52.2,47.8,29.71,NNW,332,0.0,10.0,85,0.00,,,0.00,VWS V14.01,2013-04-06 11:54:00,
2013-04-06 04:59:00,52.0,47.6,29.71,NNW,331,0.0,10.0,85,0.00,,,0.00,VWS V14.01,2013-04-06 11:59:00,
2013-04-06 05:00:00,52.7,49.6,29.68,NW,315,0.0,2.0,89,0.00,,,0.00,VWS V14.01,2013-04-06 12:00:00,
2013-04-06 05:04:00,51.9,47.8,29.71,NNW,332,0.0,10.0,86,0.00,,,0.00,VWS V14.01,2013-04-06 12:04:00,
2013-04-06 05:10:00,51.9,47.8,29.71,NNW,332,0.0,10.0,86,0.00,,,0.00,VWS V14.01,2013-04-06 12:10:00,
2013-04-06 05:15:00,52.0,48.0,29.71,NNW,331,0.0,10.0,86,0.00,,,0.00,VWS V14.01,2013-04-06 12:15:00,
2013-04-06 05:25:00,52.2,48.2,29.71,NNW,331,0.0,10.0,86,0.00,,,0.00,VWS V14.01,2013-04-06 12:25:00,
2013-04-06 05:30:00,52.3,48.2,29.71,NNW,331,0.0,10.0,86,0.00,,,0.00,VWS V14.01,2013-04-06 12:30:00,
2013-04-06 05:35:00,52.4,48.3,29.72,NNW,331,0.0,10.0,86,0.00,,,0.00,VWS V14.01,2013-04-06 12:35:00,
2013-04-06 05:40:00,52.5,48.4,29.71,NNW,331,0.0,10.0,86,0.00,,,0.00,VWS V14.01,2013-04-06 12:40:00,
2013-04-06 05:45:00,52.5,48.1,29.71,NNW,332,0.0,10.0,85,0.00,,,0.00,VWS V14.01,2013-04-06 12:45:00,
2013-04-06 05:50:00,52.4,48.0,29.71,NNW,331,0.0,10.0,85,0.00,,,0.00,VWS V14.01,2013-04-06 12:50:00,
2013-04-06 05:55:00,52.5,48.1,29.71,NNW,332,0.0,10.0,85,0.00,,,0.00,VWS V14.01,2013-04-06 12:55:00,
2013-04-06 06:00:00,52.4,48.0,29.71,NNW,331,0.0,10.0,85,0.00,,,0.00,VWS V14.01,2013-04-06 13:00:00,
2013-04-06 06:05:00,52.4,48.0,29.71,NNW,332,0.0,10.0,85,0.00,,,0.00,VWS V14.01,2013-04-06 13:05:00,
2013-04-06 06:10:00,52.4,48.0,29.72,NNW,332,0.0,10.0,85,0.00,,,0.00,VWS V14.01,2013-04-06 13:10:00,
2013-04-06 06:15:00,52.3,47.9,29.72,NNW,332,0.0,10.0,85,0.00,,,0.00,VWS V14.01,2013-04-06 13:15:00,
2013-04-06 06:20:00,52.4,48.0,29.71,NNW,332,0.0,10.0,85,0.00,,,0.00,VWS V14.01,2013-04-06 13:20:00,
2013-04-06 06:25:00,52.3,48.2,29.71,NNW,331,0.0,10.0,86,0.00,,,0.00,VWS V14.01,2013-04-06 13:25:00,
2013-04-06 06:30:00,52.3,48.2,29.72,NNW,332,0.0,10.0,86,0.00,,,0.00,VWS V14.01,2013-04-06 13:30:00,
2013-04-06 06:35:00,52.3,48.2,29.72,NNW,331,0.0,10.0,86,0.00,,,0.00,VWS V14.01,2013-04-06 13:35:00,
2013-04-06 06:40:00,52.2,48.2,29.72,NNW,331,0.0,10.0,86,0.00,,,0.00,VWS V14.01,2013-04-06 13:40:00,
2013-04-06 06:45:00,52.2,48.2,29.72,NNW,331,0.0,10.0,86,0.00,,,0.00,VWS V14.01,2013-04-06 13:45:00,
2013-04-06 06:50:00,52.1,48.4,29.72,NNW,331,0.0,10.0,87,0.00,,,0.00,VWS V14.01,2013-04-06 13:50:00,
2013-04-06 06:55:00,52.0,48.3,29.72,NNW,331,0.0,10.0,87,0.00,,,0.00,VWS V14.01,2013-04-06 13:55:00,
2013-04-06 07:00:00,52.1,48.4,29.72,NNW,332,0.0,10.0,87,0.00,,,0.00,VWS V14.01,2013-04-06 14:00:00,
2013-04-06 07:06:00,52.0,48.3,29.72,NNW,332,0.0,10.0,87,0.00,,,0.00,VWS V14.01,2013-04-06 14:06:00,
2013-04-06 07:11:00,52.1,48.4,29.72,NNW,331,0.0,10.0,87,0.00,,,0.00,VWS V14.01,2013-04-06 14:11:00,
2013-04-06 07:16:00,52.0,48.6,29.72,NNW,332,0.0,10.0,88,0.00,,,0.00,VWS V14.01,2013-04-06 14:16:00,
2013-04-06 07:21:00,52.1,48.4,29.73,NNW,331,0.0,10.0,87,0.00,,,0.00,VWS V14.01,2013-04-06 14:21:00,
2013-04-06 07:26:00,52.1,48.7,29.73,NNW,332,0.0,10.0,88,0.00,,,0.00,VWS V14.01,2013-04-06 14:26:00,
2013-04-06 07:30:00,52.2,50.0,29.69,NW,315,0.0,1.0,92,0.00,,,0.00,VWS V14.01,2013-04-06 14:30:00,
2013-04-06 07:31:00,52.1,48.7,29.73,NNW,332,0.0,10.0,88,0.00,,,0.00,VWS V14.01,2013-04-06 14:31:00,
2013-04-06 07:36:00,52.1,48.7,29.72,NNW,331,0.0,10.0,88,0.00,,,0.00,VWS V14.01,2013-04-06 14:36:00,
2013-04-06 07:41:00,52.0,48.6,29.73,NNW,331,0.0,10.0,88,0.00,,,0.00,VWS V14.01,2013-04-06 14:41:00,
2013-04-06 07:55:00,52.1,48.7,29.73,NNW,338,0.0,0.0,88,0.00,,,0.00,VWS V14.01,2013-04-06 14:55:00,
2013-04-06 08:00:00,52.1,48.7,29.72,NNW,329,0.0,0.0,88,0.00,,,0.00,VWS V14.01,2013-04-06 15:00:00,
2013-04-06 08:05:00,52.1,49.0,29.73,West,271,0.0,0.0,89,0.00,,,0.00,VWS V14.01,2013-04-06 15:05:00,
2013-04-06 08:10:00,52.2,49.1,29.73,SSW,201,0.0,0.0,89,0.00,,,0.00,VWS V14.01,2013-04-06 15:10:00,
2013-04-06 08:15:00,52.3,48.9,29.73,SSE,164,0.0,0.0,88,0.00,,,0.00,VWS V14.01,2013-04-06 15:15:00,
2013-04-06 08:20:00,52.3,48.9,29.73,SW,215,0.0,0.0,88,0.00,,,0.00,VWS V14.01,2013-04-06 15:20:00,
2013-04-06 08:25:00,52.4,49.0,29.74,SSW,205,0.0,0.0,88,0.00,,,0.00,VWS V14.01,2013-04-06 15:25:00,
2013-04-06 08:30:00,52.5,49.0,29.74,SSW,200,0.0,0.0,88,0.00,,,0.00,VWS V14.01,2013-04-06 15:30:00,
2013-04-06 08:35:00,52.6,49.2,29.74,SSW,200,0.0,0.0,88,0.00,,,0.00,VWS V14.01,2013-04-06 15:35:00,
2013-04-06 08:40:00,52.7,49.5,29.74,SSW,200,0.0,0.0,89,0.00,,,0.00,VWS V14.01,2013-04-06 15:40:00,
2013-04-06 08:45:00,52.9,49.5,29.74,SSW,200,0.0,0.0,88,0.00,,,0.00,VWS V14.01,2013-04-06 15:45:00,
2013-04-06 08:50:00,52.9,49.5,29.74,SSE,159,0.0,0.0,88,0.00,,,0.00,VWS V14.01,2013-04-06 15:50:00,
2013-04-06 08:55:00,53.1,49.7,29.74,SSE,158,0.0,0.0,88,0.00,,,0.00,VWS V14.01,2013-04-06 15:55:00,
2013-04-06 09:00:00,53.2,49.7,29.74,SSE,158,0.0,0.0,88,0.00,,,0.00,VWS V14.01,2013-04-06 16:00:00,
2013-04-06 09:05:00,53.5,50.0,29.74,SSE,158,0.0,0.0,88,0.00,,,0.00,VWS V14.01,2013-04-06 16:05:00,
2013-04-06 09:10:00,53.7,50.2,29.73,SSE,157,0.0,0.0,88,0.00,,,0.00,VWS V14.01,2013-04-06 16:10:00,
2013-04-06 09:15:00,53.7,50.2,29.73,SSE,157,0.0,0.0,88,0.00,,,0.00,VWS V14.01,2013-04-06 16:15:00,
2013-04-06 09:20:00,53.9,50.1,29.74,SSE,157,0.0,0.0,87,0.00,,,0.00,VWS V14.01,2013-04-06 16:20:00,
2013-04-06 09:25:00,53.9,50.1,29.74,SSE,157,0.0,0.0,87,0.00,,,0.00,VWS V14.01,2013-04-06 16:25:00,
2013-04-06 09:30:00,54.2,50.4,29.74,SSE,158,0.0,0.0,87,0.00,,,0.00,VWS V14.01,2013-04-06 16:30:00,
2013-04-06 09:35:00,54.5,50.4,29.74,SSE,157,0.0,0.0,86,0.00,,,0.00,VWS V14.01,2013-04-06 16:35:00,
2013-04-06 09:40:00,54.8,50.4,29.73,SSE,160,0.0,0.0,85,0.00,,,0.00,VWS V14.01,2013-04-06 16:40:00,
2013-04-06 09:45:00,55.7,51.3,29.72,SSE,160,0.0,0.0,85,0.00,,,0.00,VWS V14.01,2013-04-06 16:45:00,
2013-04-06 09:50:00,56.5,51.4,29.73,SSE,160,0.0,0.0,83,0.00,,,0.00,VWS V14.01,2013-04-06 16:50:00,
2013-04-06 09:55:00,57.3,51.9,29.73,SSE,160,0.0,0.0,82,0.00,,,0.00,VWS V14.01,2013-04-06 16:55:00,
2013-04-06 10:00:00,57.9,52.1,29.73,SSE,160,0.0,0.0,81,0.00,,,0.00,VWS V14.01,2013-04-06 17:00:00,
2013-04-06 10:05:00,58.5,52.0,29.73,SSE,160,0.0,0.0,79,0.00,,,0.00,VWS V14.01,2013-04-06 17:05:00,
2013-04-06 10:10:00,59.0,52.5,29.73,SSE,160,0.0,0.0,79,0.00,,,0.00,VWS V14.01,2013-04-06 17:10:00,
2013-04-06 10:15:00,59.5,52.6,29.73,SSE,160,0.0,0.0,78,0.00,,,0.00,VWS V14.01,2013-04-06 17:15:00,
2013-04-06 10:20:00,59.9,52.3,29.73,SSE,165,0.0,0.0,76,0.00,,,0.00,VWS V14.01,2013-04-06 17:20:00,
2013-04-06 10:25:00,59.8,51.5,29.73,SSE,165,0.0,0.0,74,0.00,,,0.00,VWS V14.01,2013-04-06 17:25:00,
2013-04-06 10:30:00,55.4,51.3,29.72,NW,315,0.0,3.0,86,0.00,,,0.00,VWS V14.01,2013-04-06 17:30:00,
2013-04-06 10:31:00,59.6,51.7,29.73,SSE,165,0.0,0.0,75,0.00,,,0.00,VWS V14.01,2013-04-06 17:31:00,
2013-04-06 10:36:00,59.6,51.7,29.73,SSE,165,0.0,0.0,75,0.00,,,0.00,VWS V14.01,2013-04-06 17:36:00,
2013-04-06 10:41:00,59.7,51.4,29.74,SSE,165,0.0,0.0,74,0.00,,,0.00,VWS V14.01,2013-04-06 17:41:00,
2013-04-06 10:46:00,59.4,51.1,29.73,SW,235,0.0,0.0,74,0.00,,,0.00,VWS V14.01,2013-04-06 17:46:00,
2013-04-06 10:51:00,59.3,51.0,29.74,SW,235,0.0,0.0,74,0.00,,,0.00,VWS V14.01,2013-04-06 17:51:00,
2013-04-06 10:56:00,59.3,51.0,29.74,West,262,0.0,0.0,74,0.00,,,0.00,VWS V14.01,2013-04-06 17:56:00,
2013-04-06 11:00:00,55.8,51.0,29.72,WSW,248,1.0,5.0,84,0.00,,,0.00,VWS V14.01,2013-04-06 18:00:00,
2013-04-06 11:01:00,59.3,51.4,29.74,West,267,0.0,0.0,75,0.00,,,0.00,VWS V14.01,2013-04-06 18:01:00,
2013-04-06 11:06:00,59.5,51.2,29.74,West,268,0.0,0.0,74,0.00,,,0.00,VWS V14.01,2013-04-06 18:06:00,
2013-04-06 11:11:00,59.4,50.8,29.74,WNW,292,0.0,0.0,73,0.00,,,0.00,VWS V14.01,2013-04-06 18:11:00,
2013-04-06 11:16:00,59.4,51.5,29.74,WNW,292,0.0,0.0,75,0.00,,,0.00,VWS V14.01,2013-04-06 18:16:00,
2013-04-06 11:21:00,59.6,51.3,29.75,NW,307,0.0,0.0,74,0.00,,,0.00,VWS V14.01,2013-04-06 18:21:00,
2013-04-06 11:26:00,59.9,51.2,29.75,NW,314,0.0,0.0,73,0.00,,,0.00,VWS V14.01,2013-04-06 18:26:00,
2013-04-06 11:30:00,57.7,50.2,29.73,West,270,1.0,5.0,76,0.00,,,0.00,VWS V14.01,2013-04-06 18:30:00,
2013-04-06 11:36:00,60.1,51.1,29.74,NW,318,0.0,0.0,72,0.00,,,0.00,VWS V14.01,2013-04-06 18:36:00,
2013-04-06 11:41:00,60.0,51.0,29.75,NW,317,0.0,0.0,72,0.00,,,0.00,VWS V14.01,2013-04-06 18:41:00,
2013-04-06 11:51:00,60.1,51.1,29.75,NW,318,0.0,0.0,72,0.00,,,0.00,VWS V14.01,2013-04-06 18:51:00,
2013-04-06 11:56:00,60.3,51.2,29.76,NW,318,0.0,0.0,72,0.00,,,0.00,VWS V14.01,2013-04-06 18:56:00,
2013-04-06 12:00:00,58.9,49.9,29.73,West,270,2.0,9.0,72,0.00,,,0.00,VWS V14.01,2013-04-06 19:00:00,
2013-04-06 12:01:00,60.6,51.5,29.75,NW,318,0.0,0.0,72,0.00,,,0.00,VWS V14.01,2013-04-06 19:01:00,
2013-04-06 12:06:00,61.2,51.7,29.74,NW,319,0.0,0.0,71,0.00,,,0.00,VWS V14.01,2013-04-06 19:06:00,
2013-04-06 12:17:00,62.1,51.4,29.74,NW,321,0.0,0.0,68,0.00,,,0.00,VWS V14.01,2013-04-06 19:17:00,
2013-04-06 12:22:00,62.4,51.3,29.74,NW,323,0.0,0.0,67,0.00,,,0.00,VWS V14.01,2013-04-06 19:22:00,
2013-04-06 12:27:00,62.6,51.1,29.74,NW,313,0.0,0.0,66,0.00,,,0.00,VWS V14.01,2013-04-06 19:27:00,
2013-04-06 12:30:00,59.8,49.6,29.75,NNW,338,3.0,10.0,69,0.00,,,0.00,VWS V14.01,2013-04-06 19:30:00,
2013-04-06 12:32:00,63.1,51.6,29.75,NW,323,0.0,0.0,66,0.00,,,0.00,VWS V14.01,2013-04-06 19:32:00,
2013-04-06 12:37:00,63.6,52.0,29.74,NW,325,0.0,0.0,66,0.00,,,0.00,VWS V14.01,2013-04-06 19:37:00,
2013-04-06 12:42:00,64.4,52.4,29.74,NW,325,0.0,0.0,65,0.00,,,0.00,VWS V14.01,2013-04-06 19:42:00,
2013-04-06 12:47:00,65.3,52.8,29.73,NW,326,0.0,0.0,64,0.00,,,0.00,VWS V14.01,2013-04-06 19:47:00,
2013-04-06 12:52:00,65.6,53.1,29.73,NW,325,0.0,0.0,64,0.00,,,0.00,VWS V14.01,2013-04-06 19:52:00,
2013-04-06 12:57:00,66.1,52.3,29.73,NW,325,0.0,0.0,61,0.00,,,0.00,VWS V14.01,2013-04-06 19:57:00,
2013-04-06 13:00:00,58.8,49.4,29.75,NNW,338,1.0,9.0,71,0.00,,,0.00,VWS V14.01,2013-04-06 20:00:00,
2013-04-06 13:02:00,66.4,53.0,29.73,NNW,330,0.0,0.0,62,0.00,,,0.00,VWS V14.01,2013-04-06 20:02:00,
2013-04-06 13:07:00,66.8,52.9,29.72,NNW,332,0.0,0.0,61,0.00,,,0.00,VWS V14.01,2013-04-06 20:07:00,
2013-04-06 13:12:00,67.1,52.3,29.72,NNW,332,0.0,0.0,59,0.00,,,0.00,VWS V14.01,2013-04-06 20:12:00,
2013-04-06 13:17:00,67.1,51.8,29.72,NNW,332,0.0,0.0,58,0.00,,,0.00,VWS V14.01,2013-04-06 20:17:00,
2013-04-06 13:22:00,66.2,51.9,29.71,NW,324,0.0,0.0,60,0.00,,,0.00,VWS V14.01,2013-04-06 20:22:00,
2013-04-06 13:27:00,66.3,52.5,29.71,NW,320,0.0,0.0,61,0.00,,,0.00,VWS V14.01,2013-04-06 20:27:00,
2013-04-06 13:30:00,59.7,48.7,29.75,NNW,338,0.0,0.0,67,0.00,,,0.00,VWS V14.01,2013-04-06 20:30:00,
2013-04-06 13:32:00,66.9,52.6,29.72,West,263,0.0,0.0,60,0.00,,,0.00,VWS V14.01,2013-04-06 20:32:00,
2013-04-06 13:37:00,67.6,52.3,29.72,WNW,303,0.0,0.0,58,0.00,,,0.00,VWS V14.01,2013-04-06 20:37:00,
2013-04-06 13:42:00,67.3,52.5,29.72,NW,313,0.0,0.0,59,0.00,,,0.00,VWS V14.01,2013-04-06 20:42:00,
2013-04-06 13:47:00,67.5,52.7,29.72,NNW,337,0.0,0.0,59,0.00,,,0.00,VWS V14.01,2013-04-06 20:47:00,
2013-04-06 13:52:00,67.5,52.7,29.72,NNW,329,0.0,0.0,59,0.00,,,0.00,VWS V14.01,2013-04-06 20:52:00,
2013-04-06 13:57:00,68.1,53.2,29.71,NNW,335,0.0,0.0,59,0.00,,,0.00,VWS V14.01,2013-04-06 20:57:00,
2013-04-06 14:00:00,61.2,49.8,29.73,NNW,338,0.0,0.0,66,0.00,,,0.00,VWS V14.01,2013-04-06 21:00:00,
2013-04-06 14:02:00,67.9,52.1,29.72,WNW,283,0.0,0.0,57,0.00,,,0.00,VWS V14.01,2013-04-06 21:02:00,
2013-04-06 14:07:00,67.9,52.1,29.71,NW,323,0.0,0.0,57,0.00,,,0.00,VWS V14.01,2013-04-06 21:07:00,
2013-04-06 14:12:00,68.2,52.4,29.71,NNW,330,0.0,0.0,57,0.00,,,0.00,VWS V14.01,2013-04-06 21:12:00,
2013-04-06 14:17:00,68.2,51.9,29.71,NNW,328,0.0,0.0,56,0.00,,,0.00,VWS V14.01,2013-04-06 21:17:00,
2013-04-06 14:22:00,68.1,51.8,29.71,NNW,342,0.0,0.0,56,0.00,,,0.00,VWS V14.01,2013-04-06 21:22:00,
2013-04-06 14:27:00,68.4,52.1,29.71,NNW,338,0.0,0.0,56,0.00,,,0.00,VWS V14.01,2013-04-06 21:27:00,
2013-04-06 14:30:00,62.4,49.7,29.71,NNW,338,0.0,0.0,63,0.00,,,0.00,VWS V14.01,2013-04-06 21:30:00,
2013-04-06 14:32:00,68.6,52.3,29.71,NW,326,0.0,0.0,56,0.00,,,0.00,VWS V14.01,2013-04-06 21:32:00,
2013-04-06 14:37:00,68.4,51.6,29.71,NNW,335,0.0,0.0,55,0.00,,,0.00,VWS V14.01,2013-04-06 21:37:00,
2013-04-06 14:42:00,68.4,51.6,29.71,NNW,344,0.0,0.0,55,0.00,,,0.00,VWS V14.01,2013-04-06 21:42:00,
2013-04-06 14:47:00,67.9,51.2,29.71,NNW,340,0.0,0.0,55,0.00,,,0.00,VWS V14.01,2013-04-06 21:47:00,
2013-04-06 14:52:00,67.1,49.9,29.71,NNW,339,0.0,0.0,54,0.00,,,0.00,VWS V14.01,2013-04-06 21:52:00,
2013-04-06 14:57:00,66.6,50.4,29.71,NNW,343,0.0,0.0,56,0.00,,,0.00,VWS V14.01,2013-04-06 21:57:00,
2013-04-06 15:00:00,63.3,49.6,29.72,NNW,338,0.0,0.0,61,0.00,,,0.00,VWS V14.01,2013-04-06 22:00:00,
2013-04-06 15:02:00,66.6,49.5,29.71,NNW,340,0.0,0.0,54,0.00,,,0.00,VWS V14.01,2013-04-06 22:02:00,
2013-04-06 15:07:00,66.4,49.8,29.71,NNW,344,0.0,0.0,55,0.00,,,0.00,VWS V14.01,2013-04-06 22:07:00,
2013-04-06 15:12:00,66.6,50.0,29.70,NNW,347,0.0,0.0,55,0.00,,,0.00,VWS V14.01,2013-04-06 22:12:00,
2013-04-06 15:17:00,67.3,52.0,29.70,NNW,347,0.0,0.0,58,0.00,,,0.00,VWS V14.01,2013-04-06 22:17:00,
2013-04-06 15:22:00,67.7,50.5,29.71,NNW,345,0.0,0.0,54,0.00,,,0.00,VWS V14.01,2013-04-06 22:22:00,
2013-04-06 15:27:00,67.9,49.7,29.70,NNW,344,0.0,0.0,52,0.00,,,0.00,VWS V14.01,2013-04-06 22:27:00,
2013-04-06 15:30:00,62.1,49.4,29.71,NNW,338,0.0,0.0,63,0.00,,,0.00,VWS V14.01,2013-04-06 22:30:00,
2013-04-06 15:32:00,67.9,51.2,29.70,NNW,345,0.0,0.0,55,0.00,,,0.00,VWS V14.01,2013-04-06 22:32:00,
2013-04-06 15:37:00,67.8,51.1,29.70,NNW,343,0.0,0.0,55,0.00,,,0.00,VWS V14.01,2013-04-06 22:37:00,
2013-04-06 15:42:00,67.7,50.0,29.70,NNW,339,0.0,0.0,53,0.00,,,0.00,VWS V14.01,2013-04-06 22:42:00,
2013-04-06 15:47:00,67.7,50.0,29.70,North,351,0.0,0.0,53,0.00,,,0.00,VWS V14.01,2013-04-06 22:47:00,
2013-04-06 15:52:00,67.6,50.9,29.70,NNW,348,0.0,0.0,55,0.00,,,0.00,VWS V14.01,2013-04-06 22:52:00,
2013-04-06 15:57:00,67.4,50.7,29.70,NNW,347,0.0,0.0,55,0.00,,,0.00,VWS V14.01,2013-04-06 22:57:00,
2013-04-06 16:00:00,62.4,48.3,29.70,NNW,338,0.0,0.0,60,0.00,,,0.00,VWS V14.01,2013-04-06 23:00:00,
2013-04-06 16:02:00,66.5,50.3,29.70,NNW,336,0.0,0.0,56,0.00,,,0.00,VWS V14.01,2013-04-06 23:02:00,
2013-04-06 16:07:00,66.0,50.3,29.69,NNW,332,0.0,0.0,57,0.00,,,0.00,VWS V14.01,2013-04-06 23:07:00,
2013-04-06 16:13:00,65.4,50.2,29.70,NNW,331,0.0,0.0,58,0.00,,,0.00,VWS V14.01,2013-04-06 23:13:00,
2013-04-06 16:18:00,65.3,50.6,29.70,NNW,331,0.0,0.0,59,0.00,,,0.00,VWS V14.01,2013-04-06 23:18:00,
2013-04-06 16:23:00,65.2,50.5,29.69,NNW,334,0.0,0.0,59,0.00,,,0.00,VWS V14.01,2013-04-06 23:23:00,
2013-04-06 16:28:00,65.3,50.6,29.69,NNW,339,0.0,0.0,59,0.00,,,0.00,VWS V14.01,2013-04-06 23:28:00,
2013-04-06 16:30:00,63.1,49.0,29.70,NNW,338,0.0,0.0,60,0.00,,,0.00,VWS V14.01,2013-04-06 23:30:00,
2013-04-06 16:33:00,65.4,50.7,29.70,NNW,341,0.0,0.0,59,0.00,,,0.00,VWS V14.01,2013-04-06 23:33:00,
2013-04-06 16:38:00,65.0,50.3,29.69,NNW,341,0.0,0.0,59,0.00,,,0.00,VWS V14.01,2013-04-06 23:38:00,
2013-04-06 16:43:00,65.0,50.8,29.69,NNW,341,0.0,0.0,60,0.00,,,0.00,VWS V14.01,2013-04-06 23:43:00,
2013-04-06 16:48:00,64.8,50.6,29.69,NNW,339,0.0,0.0,60,0.00,,,0.00,VWS V14.01,2013-04-06 23:48:00,
2013-04-06 16:53:00,64.3,50.1,29.69,NNW,341,0.0,0.0,60,0.00,,,0.00,VWS V14.01,2013-04-06 23:53:00,
2013-04-06 16:58:00,63.7,50.0,29.69,NNW,335,0.0,0.0,61,0.00,,,0.00,VWS V14.01,2013-04-06 23:58:00,
2013-04-06 17:00:00,64.1,49.0,29.69,NNW,338,0.0,0.0,58,0.00,,,0.00,VWS V14.01,2013-04-07 00:00:00,
2013-04-06 17:03:00,63.2,50.0,29.69,NNW,335,0.0,0.0,62,0.00,,,0.00,VWS V14.01,2013-04-07 00:03:00,
2013-04-06 17:08:00,63.3,49.6,29.68,NNW,334,0.0,0.0,61,0.00,,,0.00,VWS V14.01,2013-04-07 00:08:00,
2013-04-06 17:13:00,63.4,49.7,29.68,NNW,338,0.0,0.0,61,0.00,,,0.00,VWS V14.01,2013-04-07 00:13:00,
2013-04-06 17:18:00,63.2,49.1,29.68,NNW,337,0.0,0.0,60,0.00,,,0.00,VWS V14.01,2013-04-07 00:18:00,
2013-04-06 17:23:00,63.3,49.6,29.68,NNW,337,0.0,0.0,61,0.00,,,0.00,VWS V14.01,2013-04-07 00:23:00,
2013-04-06 17:28:00,63.1,49.0,29.68,NNW,337,0.0,0.0,60,0.00,,,0.00,VWS V14.01,2013-04-07 00:28:00,
2013-04-06 17:30:00,63.1,49.0,29.69,NNW,338,0.0,0.0,60,0.00,,,0.00,VWS V14.01,2013-04-07 00:30:00,
2013-04-06 17:33:00,63.0,49.4,29.69,NNW,336,0.0,0.0,61,0.00,,,0.00,VWS V14.01,2013-04-07 00:33:00,
2013-04-06 17:38:00,62.8,49.2,29.68,NNW,338,0.0,0.0,61,0.00,,,0.00,VWS V14.01,2013-04-07 00:38:00,
2013-04-06 17:43:00,62.4,48.3,29.68,NNW,338,0.0,0.0,60,0.00,,,0.00,VWS V14.01,2013-04-07 00:43:00,
2013-04-06 17:48:00,62.3,48.7,29.68,NNW,338,0.0,0.0,61,0.00,,,0.00,VWS V14.01,2013-04-07 00:48:00,
2013-04-06 17:53:00,62.1,48.9,29.68,NNW,338,0.0,0.0,62,0.00,,,0.00,VWS V14.01,2013-04-07 00:53:00,
2013-04-06 17:58:00,62.0,48.8,29.68,NNW,336,0.0,0.0,62,0.00,,,0.00,VWS V14.01,2013-04-07 00:58:00,
2013-04-06 18:00:00,63.2,50.0,29.69,NNW,338,0.0,0.0,62,0.00,,,0.00,VWS V14.01,2013-04-07 01:00:00,
2013-04-06 18:03:00,61.7,48.1,29.69,NNW,336,0.0,0.0,61,0.00,,,0.00,VWS V14.01,2013-04-07 01:03:00,
2013-04-06 18:08:00,61.3,48.2,29.69,NNW,335,0.0,0.0,62,0.00,,,0.00,VWS V14.01,2013-04-07 01:08:00,
2013-04-06 18:13:00,60.9,48.7,29.69,NNW,335,0.0,0.0,64,0.00,,,0.00,VWS V14.01,2013-04-07 01:13:00,
2013-04-06 18:18:00,60.5,47.9,29.69,NNW,335,0.0,0.0,63,0.00,,,0.00,VWS V14.01,2013-04-07 01:18:00,
2013-04-06 18:23:00,60.2,48.0,29.68,NNW,335,0.0,0.0,64,0.00,,,0.00,VWS V14.01,2013-04-07 01:23:00,
2013-04-06 18:28:00,60.0,47.8,29.68,NNW,338,0.0,0.0,64,0.00,,,0.00,VWS V14.01,2013-04-07 01:28:00,
2013-04-06 18:30:00,62.2,48.6,29.69,NNW,338,0.0,0.0,61,0.00,,,0.00,VWS V14.01,2013-04-07 01:30:00,
2013-04-06 18:33:00,59.9,48.1,29.68,NNW,337,0.0,0.0,65,0.00,,,0.00,VWS V14.01,2013-04-07 01:33:00,
2013-04-06 18:44:00,58.7,47.4,29.68,NNW,336,0.0,0.0,66,0.00,,,0.00,VWS V14.01,2013-04-07 01:44:00,
2013-04-06 18:49:00,58.3,47.8,29.68,NNW,336,0.0,0.0,68,0.00,,,0.00,VWS V14.01,2013-04-07 01:49:00,
2013-04-06 18:54:00,57.9,47.4,29.68,NNW,336,0.0,0.0,68,0.00,,,0.00,VWS V14.01,2013-04-07 01:54:00,
2013-04-06 18:59:00,57.6,47.5,29.68,NNW,336,0.0,0.0,69,0.00,,,0.00,VWS V14.01,2013-04-07 01:59:00,
2013-04-06 19:00:00,61.9,48.8,29.67,NNW,338,0.0,0.0,62,0.00,,,0.00,VWS V14.01,2013-04-07 02:00:00,
2013-04-06 19:04:00,57.2,47.5,29.68,NNW,337,0.0,0.0,70,0.00,,,0.00,VWS V14.01,2013-04-07 02:04:00,
2013-04-06 19:09:00,56.9,47.6,29.68,NNW,336,0.0,0.0,71,0.00,,,0.00,VWS V14.01,2013-04-07 02:09:00,
2013-04-06 19:14:00,56.8,47.5,29.68,NNW,337,0.0,0.0,71,0.00,,,0.00,VWS V14.01,2013-04-07 02:14:00,
2013-04-06 19:19:00,56.6,47.3,29.68,NNW,337,0.0,0.0,71,0.00,,,0.00,VWS V14.01,2013-04-07 02:19:00,
2013-04-06 19:24:00,56.5,47.2,29.69,NNW,337,0.0,0.0,71,0.00,,,0.00,VWS V14.01,2013-04-07 02:24:00,
2013-04-06 19:29:00,56.4,47.5,29.69,NNW,337,0.0,0.0,72,0.00,,,0.00,VWS V14.01,2013-04-07 02:29:00,
2013-04-06 19:30:00,59.0,48.9,29.70,NNW,338,0.0,0.0,69,0.00,,,0.00,VWS V14.01,2013-04-07 02:30:00,
2013-04-06 19:34:00,56.1,47.2,29.69,NNW,337,0.0,0.0,72,0.00,,,0.00,VWS V14.01,2013-04-07 02:34:00,
2013-04-06 19:39:00,56.0,47.5,29.69,NNW,337,0.0,0.0,73,0.00,,,0.00,VWS V14.01,2013-04-07 02:39:00,
2013-04-06 19:44:00,55.7,47.2,29.69,NNW,337,0.0,0.0,73,0.00,,,0.00,VWS V14.01,2013-04-07 02:44:00,
2013-04-06 19:49:00,55.3,47.2,29.69,NNW,337,0.0,0.0,74,0.00,,,0.00,VWS V14.01,2013-04-07 02:49:00,
2013-04-06 19:54:00,55.0,47.2,29.69,NNW,338,0.0,0.0,75,0.00,,,0.00,VWS V14.01,2013-04-07 02:54:00,
2013-04-06 19:59:00,54.8,47.4,29.70,NNW,338,0.0,0.0,76,0.00,,,0.00,VWS V14.01,2013-04-07 02:59:00,
2013-04-06 20:00:00,57.7,48.4,29.68,NNW,338,0.0,0.0,71,0.00,,,0.00,VWS V14.01,2013-04-07 03:00:00,
2013-04-06 20:04:00,54.5,46.8,29.69,NNW,338,0.0,0.0,75,0.00,,,0.00,VWS V14.01,2013-04-07 03:04:00,
2013-04-06 20:09:00,54.4,47.0,29.69,NNW,338,0.0,0.0,76,0.00,,,0.00,VWS V14.01,2013-04-07 03:09:00,
2013-04-06 20:15:00,54.2,46.8,29.70,NNW,338,0.0,0.0,76,0.00,,,0.00,VWS V14.01,2013-04-07 03:15:00,
2013-04-06 20:25:00,53.6,46.6,29.69,NNW,338,0.0,0.0,77,0.00,,,0.00,VWS V14.01,2013-04-07 03:25:00,
2013-04-06 20:30:00,53.4,46.7,29.70,NNW,340,0.0,0.0,78,0.00,,,0.00,VWS V14.01,2013-04-07 03:30:00,
2013-04-06 20:35:00,53.3,46.6,29.70,NNW,340,0.0,0.0,78,0.00,,,0.00,VWS V14.01,2013-04-07 03:35:00,
2013-04-06 20:40:00,53.1,46.4,29.70,NNW,340,0.0,0.0,78,0.00,,,0.00,VWS V14.01,2013-04-07 03:40:00,
2013-04-06 20:45:00,53.1,46.4,29.70,NNW,340,0.0,0.0,78,0.00,,,0.00,VWS V14.01,2013-04-07 03:45:00,
2013-04-06 20:50:00,52.7,46.0,29.70,NNW,340,0.0,0.0,78,0.00,,,0.00,VWS V14.01,2013-04-07 03:50:00,
2013-04-06 20:55:00,52.7,46.0,29.70,NNW,341,0.0,0.0,78,0.00,,,0.00,VWS V14.01,2013-04-07 03:55:00,
2013-04-06 21:00:00,52.5,46.2,29.70,NNW,340,0.0,0.0,79,0.00,,,0.00,VWS V14.01,2013-04-07 04:00:00,
2013-04-06 21:05:00,52.5,46.2,29.71,NNW,341,0.0,0.0,79,0.00,,,0.00,VWS V14.01,2013-04-07 04:05:00,
2013-04-06 21:10:00,52.3,46.0,29.70,NNW,340,0.0,0.0,79,0.00,,,0.00,VWS V14.01,2013-04-07 04:10:00,
2013-04-06 21:15:00,52.2,45.9,29.71,NNW,341,0.0,0.0,79,0.00,,,0.00,VWS V14.01,2013-04-07 04:15:00,
2013-04-06 21:20:00,52.2,45.9,29.71,NNW,340,0.0,0.0,79,0.00,,,0.00,VWS V14.01,2013-04-07 04:20:00,
2013-04-06 21:25:00,52.1,45.8,29.71,NNW,340,0.0,0.0,79,0.00,,,0.00,VWS V14.01,2013-04-07 04:25:00,
2013-04-06 21:30:00,51.9,45.6,29.71,NNW,340,0.0,0.0,79,0.00,,,0.00,VWS V14.01,2013-04-07 04:30:00,
2013-04-06 21:35:00,51.7,45.7,29.71,NNW,340,0.0,0.0,80,0.00,,,0.00,VWS V14.01,2013-04-07 04:35:00,
2013-04-06 21:40:00,51.6,45.6,29.71,NNW,340,0.0,0.0,80,0.00,,,0.00,VWS V14.01,2013-04-07 04:40:00,
2013-04-06 21:45:00,51.4,45.5,29.72,NNW,340,0.0,0.0,80,0.00,,,0.00,VWS V14.01,2013-04-07 04:45:00,
2013-04-06 21:50:00,51.1,45.2,29.72,NNW,340,0.0,0.0,80,0.00,,,0.00,VWS V14.01,2013-04-07 04:50:00,
2013-04-06 21:55:00,51.0,45.4,29.72,NNW,340,0.0,0.0,81,0.00,,,0.00,VWS V14.01,2013-04-07 04:55:00,
2013-04-06 22:00:00,50.8,45.5,29.72,NNW,341,0.0,0.0,82,0.00,,,0.00,VWS V14.01,2013-04-07 05:00:00,
2013-04-06 22:05:00,50.8,45.2,29.72,NNW,340,0.0,0.0,81,0.00,,,0.00,VWS V14.01,2013-04-07 05:05:00,
2013-04-06 22:10:00,50.7,45.4,29.72,NNW,341,0.0,0.0,82,0.00,,,0.00,VWS V14.01,2013-04-07 05:10:00,
2013-04-06 22:15:00,50.6,45.6,29.72,NNW,340,0.0,0.0,83,0.00,,,0.00,VWS V14.01,2013-04-07 05:15:00,
2013-04-06 22:20:00,50.6,45.3,29.73,NNW,340,0.0,0.0,82,0.00,,,0.00,VWS V14.01,2013-04-07 05:20:00,
2013-04-06 22:25:00,50.6,45.6,29.73,NNW,341,0.0,0.0,83,0.00,,,0.00,VWS V14.01,2013-04-07 05:25:00,
2013-04-06 22:30:00,50.7,45.7,29.74,NNW,340,0.0,0.0,83,0.00,,,0.00,VWS V14.01,2013-04-07 05:30:00,
2013-04-06 22:35:00,50.7,45.7,29.74,NNW,340,0.0,0.0,83,0.00,,,0.00,VWS V14.01,2013-04-07 05:35:00,
2013-04-06 22:40:00,50.7,45.7,29.73,NNW,340,0.0,0.0,83,0.00,,,0.00,VWS V14.01,2013-04-07 05:40:00,
2013-04-06 22:46:00,50.8,45.8,29.73,NNW,340,0.0,0.0,83,0.00,,,0.00,VWS V14.01,2013-04-07 05:46:00,
2013-04-06 22:51:00,50.9,45.9,29.73,NNW,340,0.0,0.0,83,0.00,,,0.00,VWS V14.01,2013-04-07 05:51:00,
2013-04-06 22:56:00,51.0,46.0,29.72,NNW,340,0.0,0.0,83,0.00,,,0.00,VWS V14.01,2013-04-07 05:56:00,
2013-04-06 23:00:00,52.8,46.8,29.73,NNW,338,0.0,0.0,80,0.00,,,0.00,VWS V14.01,2013-04-07 06:00:00,
2013-04-06 23:01:00,51.1,46.1,29.73,NNW,341,0.0,0.0,83,0.00,,,0.00,VWS V14.01,2013-04-07 06:01:00,
2013-04-06 23:11:00,51.4,46.1,29.73,NNW,340,0.0,0.0,82,0.00,,,0.00,VWS V14.01,2013-04-07 06:11:00,
2013-04-06 23:16:00,51.4,45.8,29.73,NNW,340,0.0,0.0,81,0.00,,,0.00,VWS V14.01,2013-04-07 06:16:00,
2013-04-06 23:21:00,51.4,45.8,29.73,NNW,341,0.0,0.0,81,0.00,,,0.00,VWS V14.01,2013-04-07 06:21:00,
2013-04-06 23:26:00,51.5,45.9,29.74,NNW,340,0.0,0.0,81,0.00,,,0.00,VWS V14.01,2013-04-07 06:26:00,
2013-04-06 23:30:00,52.3,46.7,29.73,NNW,338,0.0,0.0,81,0.00,,,0.00,VWS V14.01,2013-04-07 06:30:00,
2013-04-06 23:31:00,51.5,45.9,29.73,NNW,340,0.0,0.0,81,0.00,,,0.00,VWS V14.01,2013-04-07 06:31:00,
2013-04-06 23:36:00,51.6,46.0,29.73,NNW,340,0.0,0.0,81,0.00,,,0.00,VWS V14.01,2013-04-07 06:36:00,
2013-04-06 23:41:00,51.7,46.1,29.74,NNW,340,0.0,0.0,81,0.00,,,0.00,VWS V14.01,2013-04-07 06:41:00,
2013-04-06 23:47:00,51.7,46.1,29.74,NNW,340,0.0,0.0,81,0.00,,,0.00,VWS V14.01,2013-04-07 06:47:00,
2013-04-06 23:52:00,51.8,46.2,29.73,NNW,341,0.0,0.0,81,0.00,,,0.00,VWS V14.01,2013-04-07 06:52:00,
2013-04-06 23:57:00,51.8,46.2,29.73,NNW,340,0.0,0.0,81,0.00,,,0.00,VWS V14.01,2013-04-07 06:57:00,